createdAt,value
2023-02-28T00:00:19.505Z,2.50
2023-02-28T00:02:47.102Z,3.08
2023-02-28T00:05:16.060Z,2.45
2023-02-28T00:07:43.417Z,2.78
2023-02-28T00:10:17.014Z,3.20
2023-02-28T00:12:43.848Z,2.70
2023-02-28T00:15:11.963Z,3.20
2023-02-28T00:17:39.236Z,2.50
2023-02-28T00:20:12.736Z,2.47
2023-02-28T00:22:41.252Z,3.03
2023-02-28T00:25:09.352Z,2.28
2023-02-28T00:27:38.583Z,2.67
2023-02-28T00:30:07.352Z,3.00
2023-02-28T00:32:35.548Z,2.95
2023-02-28T00:35:03.420Z,3.10
2023-02-28T00:37:30.686Z,2.83
2023-02-28T00:39:57.925Z,2.50
2023-02-28T00:42:25.616Z,2.67
2023-02-28T00:44:52.964Z,3.03
2023-02-28T00:47:20.470Z,2.83
2023-02-28T00:49:47.882Z,2.47
2023-02-28T00:52:15.079Z,2.60
2023-02-28T00:54:42.288Z,2.97
2023-02-28T00:57:09.204Z,2.42
2023-02-28T00:59:36.238Z,2.67
2023-02-28T01:02:03.048Z,2.67
2023-02-28T01:04:30.006Z,2.70
2023-02-28T01:06:56.934Z,2.47
2023-02-28T01:09:23.746Z,2.80
2023-02-28T01:11:51.115Z,3.00
2023-02-28T01:14:19.432Z,2.95
2023-02-28T01:16:46.574Z,3.10
2023-02-28T01:19:13.798Z,2.53
2023-02-28T01:21:40.590Z,2.78
2023-02-28T01:24:08.185Z,2.90
2023-02-28T01:26:36.407Z,2.33
2023-02-28T01:29:03.874Z,2.53
2023-02-28T01:31:31.040Z,2.85
2023-02-28T01:33:58.478Z,3.00
2023-02-28T01:36:28.955Z,3.28
2023-02-28T01:38:56.706Z,2.78
2023-02-28T01:41:32.421Z,2.80
2023-02-28T01:44:28.672Z,2.65
2023-02-28T01:46:56.443Z,2.90
2023-02-28T01:49:23.332Z,3.00
2023-02-28T01:51:54.021Z,2.80
2023-02-28T01:54:26.201Z,2.63
2023-02-28T01:57:16.846Z,2.63
2023-02-28T01:59:50.604Z,3.10
2023-02-28T02:02:19.929Z,3.03
2023-02-28T02:05:05.050Z,3.03
2023-02-28T02:07:38.985Z,2.63
2023-02-28T02:10:07.011Z,3.50
2023-02-28T02:12:39.709Z,2.55
2023-02-28T02:15:06.977Z,2.90
2023-02-28T02:17:42.944Z,2.70
2023-02-28T02:23:13.606Z,2.55
2023-02-28T02:25:52.108Z,2.70
2023-02-28T02:28:34.759Z,3.13
2023-02-28T02:31:41.400Z,2.63
2023-02-28T02:34:34.383Z,2.75
2023-02-28T02:37:01.578Z,3.03
2023-02-28T02:39:46.409Z,2.72
2023-02-28T02:42:47.338Z,2.92
2023-02-28T02:45:37.453Z,3.03
2023-02-28T02:48:09.016Z,3.08
2023-02-28T02:50:43.877Z,3.30
2023-02-28T02:53:12.872Z,2.75
2023-02-28T02:55:47.251Z,2.90
2023-02-28T02:58:19.808Z,2.83
2023-02-28T03:00:52.301Z,2.72
2023-02-28T03:03:21.722Z,3.08
2023-02-28T03:05:52.196Z,2.50
2023-02-28T03:08:19.138Z,3.22
2023-02-28T03:10:50.962Z,2.70
2023-02-28T03:13:34.791Z,2.85
2023-02-28T03:16:32.935Z,3.05
2023-02-28T03:19:18.207Z,2.70
2023-02-28T03:21:56.559Z,3.30
2023-02-28T03:24:51.238Z,3.00
2023-02-28T03:27:30.219Z,2.53
2023-02-28T03:30:18.704Z,3.05
2023-02-28T03:32:54.138Z,3.38
2023-02-28T03:35:24.906Z,2.55
2023-02-28T03:37:56.306Z,2.88
2023-02-28T03:40:28.101Z,3.13
2023-02-28T03:43:01.181Z,2.90
2023-02-28T03:45:32.029Z,3.28
2023-02-28T03:48:08.771Z,3.22
2023-02-28T03:50:44.568Z,2.97
2023-02-28T03:53:29.198Z,2.90
2023-02-28T03:56:02.371Z,3.25
2023-02-28T03:59:04.159Z,2.95
2023-02-28T04:01:42.371Z,3.30
2023-02-28T04:04:13.576Z,3.15
2023-02-28T04:06:41.629Z,2.75
2023-02-28T04:11:39.737Z,3.05
2023-02-28T04:14:08.544Z,3.15
2023-02-28T04:16:38.915Z,2.95
2023-02-28T04:19:07.365Z,3.30
2023-02-28T04:21:36.725Z,2.88
2023-02-28T04:24:04.546Z,3.40
2023-02-28T04:26:36.435Z,3.00
2023-02-28T04:29:06.506Z,3.28
2023-02-28T04:31:33.924Z,3.95
2023-02-28T04:34:01.801Z,3.30
2023-02-28T04:36:29.027Z,3.17
2023-02-28T04:38:56.441Z,3.45
2023-02-28T04:41:23.933Z,2.72
2023-02-28T04:43:53.515Z,3.55
2023-02-28T04:46:21.835Z,3.70
2023-02-28T04:48:49.103Z,3.60
2023-02-28T04:51:17.776Z,3.90
2023-02-28T04:53:45.063Z,3.30
2023-02-28T04:56:15.059Z,3.30
2023-02-28T04:58:42.440Z,3.75
2023-02-28T05:01:24.141Z,4.25
2023-02-28T05:03:52.175Z,3.30
2023-02-28T05:06:21.275Z,3.53
2023-02-28T05:08:48.556Z,3.33
2023-02-28T05:11:30.788Z,3.00
2023-02-28T05:13:58.298Z,3.60
2023-02-28T05:16:25.636Z,3.50
2023-02-28T05:18:54.839Z,4.05
2023-02-28T05:21:27.273Z,2.78
2023-02-28T05:23:55.097Z,3.33
2023-02-28T05:26:22.571Z,3.42
2023-02-28T05:28:49.867Z,3.05
2023-02-28T05:31:16.906Z,3.60
2023-02-28T05:33:44.165Z,4.22
2023-02-28T05:36:11.477Z,3.30
2023-02-28T05:38:39.466Z,3.20
2023-02-28T05:41:08.900Z,2.97
2023-02-28T05:43:38.803Z,3.72
2023-02-28T05:46:11.739Z,3.47
2023-02-28T05:48:40.084Z,3.45
2023-02-28T05:51:08.095Z,4.35
2023-02-28T05:53:35.731Z,3.15
2023-02-28T05:56:02.749Z,3.60
2023-02-28T05:58:31.904Z,3.40
2023-02-28T06:01:00.092Z,3.92
2023-02-28T06:03:27.992Z,3.70
2023-02-28T06:05:55.282Z,3.58
2023-02-28T06:08:22.140Z,3.47
2023-02-28T06:10:49.357Z,3.75
2023-02-28T06:13:16.542Z,4.00
2023-02-28T06:15:43.901Z,3.80
2023-02-28T06:18:11.446Z,4.03
2023-02-28T06:20:38.748Z,3.90
2023-02-28T06:23:05.959Z,3.60
2023-02-28T06:25:32.806Z,4.20
2023-02-28T06:27:59.597Z,3.95
2023-02-28T06:30:27.672Z,3.05
2023-02-28T06:32:55.826Z,3.72
2023-02-28T06:35:23.178Z,3.67
2023-02-28T06:37:50.322Z,3.30
2023-02-28T06:40:17.600Z,3.60
2023-02-28T06:42:44.820Z,3.85
2023-02-28T06:45:12.609Z,3.53
2023-02-28T06:47:41.367Z,3.70
2023-02-28T06:50:10.567Z,3.42
2023-02-28T06:52:38.419Z,3.65
2023-02-28T06:55:07.568Z,4.03
2023-02-28T06:57:36.167Z,3.90
2023-02-28T07:00:08.583Z,3.78
2023-02-28T07:02:36.779Z,4.07
2023-02-28T07:05:04.652Z,3.60
2023-02-28T07:07:31.952Z,3.60
2023-02-28T07:09:59.167Z,3.90
2023-02-28T07:12:26.440Z,3.50
2023-02-28T07:14:53.786Z,3.28
2023-02-28T07:17:20.547Z,3.53
2023-02-28T07:19:47.736Z,3.10
2023-02-28T07:22:16.017Z,3.70
2023-02-28T07:24:43.335Z,3.28
2023-02-28T07:27:10.687Z,3.42
2023-02-28T07:29:39.227Z,3.35
2023-02-28T07:32:06.544Z,3.85
2023-02-28T07:34:33.804Z,3.42
2023-02-28T07:37:04.587Z,3.72
2023-02-28T07:39:31.853Z,3.90
2023-02-28T07:42:00.678Z,3.60
2023-02-28T07:44:28.283Z,3.88
2023-02-28T07:46:55.517Z,3.53
2023-02-28T07:49:22.990Z,3.20
2023-02-28T07:51:50.180Z,3.22
2023-02-28T07:54:17.450Z,3.17
2023-02-28T07:56:44.659Z,3.58
2023-02-28T07:59:11.916Z,3.17
2023-02-28T08:01:40.362Z,3.83
2023-02-28T08:04:07.677Z,3.55
2023-02-28T08:06:34.852Z,3.28
2023-02-28T08:09:02.120Z,3.00
2023-02-28T08:11:29.506Z,3.92
2023-02-28T08:13:57.180Z,2.88
2023-02-28T08:16:24.859Z,3.17
2023-02-28T08:18:55.235Z,2.85
2023-02-28T08:21:22.890Z,3.25
2023-02-28T08:23:50.985Z,3.38
2023-02-28T08:26:19.405Z,3.03
2023-02-28T08:28:46.687Z,3.30
2023-02-28T08:31:15.428Z,3.33
2023-02-28T08:33:43.093Z,3.15
2023-02-28T08:36:10.544Z,3.55
2023-02-28T08:38:38.118Z,3.08
2023-02-28T08:41:08.221Z,3.30
2023-02-28T08:43:35.653Z,3.30
2023-02-28T08:46:02.941Z,3.58
2023-02-28T08:48:32.326Z,3.67
2023-02-28T08:51:08.328Z,3.13
2023-02-28T08:53:36.298Z,3.95
2023-02-28T08:56:17.089Z,3.20
2023-02-28T08:58:45.418Z,3.42
2023-02-28T09:01:14.818Z,3.65
2023-02-28T09:03:42.683Z,4.15
2023-02-28T09:06:10.918Z,3.58
2023-02-28T09:08:38.017Z,3.60
2023-02-28T09:11:05.567Z,3.90
2023-02-28T09:13:33.724Z,3.42
2023-02-28T09:16:03.073Z,4.25
2023-02-28T09:18:30.351Z,3.55
2023-02-28T09:20:58.748Z,3.90
2023-02-28T09:23:26.463Z,3.95
2023-02-28T09:25:55.053Z,3.85
2023-02-28T09:28:22.699Z,4.15
2023-02-28T09:30:52.659Z,4.15
2023-02-28T09:33:24.100Z,3.55
2023-02-28T09:35:52.062Z,4.60
2023-02-28T09:38:19.500Z,4.22
2023-02-28T09:40:55.845Z,4.72
2023-02-28T09:43:27.540Z,4.45
2023-02-28T09:46:01.885Z,4.45
2023-02-28T09:48:33.225Z,3.80
2023-02-28T09:51:56.356Z,4.68
2023-02-28T09:54:28.527Z,4.40
2023-02-28T09:57:06.012Z,3.72
2023-02-28T09:59:38.845Z,4.20
2023-02-28T10:02:15.222Z,4.40
2023-02-28T10:04:52.558Z,4.40
2023-02-28T10:07:40.756Z,3.35
2023-02-28T10:10:22.637Z,3.60
2023-02-28T10:12:52.172Z,4.03
2023-02-28T10:15:19.785Z,3.75
2023-02-28T10:17:55.804Z,3.38
2023-02-28T10:20:39.768Z,3.67
2023-02-28T10:23:20.845Z,3.38
2023-02-28T10:25:55.303Z,4.25
2023-02-28T10:28:22.507Z,3.63
2023-02-28T10:30:52.792Z,3.88
2023-02-28T10:33:35.193Z,4.22
2023-02-28T10:36:04.633Z,3.50
2023-02-28T10:38:38.441Z,3.75
2023-02-28T10:41:16.034Z,3.85
2023-02-28T10:43:46.152Z,3.85
2023-02-28T10:46:27.039Z,3.50
2023-02-28T10:49:07.140Z,3.35
2023-02-28T10:51:39.312Z,3.28
2023-02-28T10:54:06.976Z,3.72
2023-02-28T10:56:34.850Z,3.40
2023-02-28T10:59:31.432Z,3.70
2023-02-28T11:01:58.410Z,2.42
2023-02-28T11:04:25.689Z,3.85
2023-02-28T11:07:05.624Z,3.88
2023-02-28T11:09:36.712Z,3.70
2023-02-28T11:12:07.197Z,4.30
2023-02-28T11:14:49.971Z,3.63
2023-02-28T11:17:23.756Z,3.70
2023-02-28T11:20:04.746Z,4.00
2023-02-28T11:22:38.956Z,3.75
2023-02-28T11:25:25.804Z,3.67
2023-02-28T11:27:55.309Z,3.63
2023-02-28T11:30:38.217Z,3.85
2023-02-28T11:33:45.999Z,3.50
2023-02-28T11:36:20.957Z,3.58
2023-02-28T11:38:50.558Z,3.70
2023-02-28T11:41:40.900Z,3.28
2023-02-28T11:44:23.176Z,3.67
2023-02-28T11:47:01.908Z,4.18
2023-02-28T11:49:49.290Z,3.85
2023-02-28T11:52:30.347Z,3.45
2023-02-28T11:55:17.990Z,4.10
2023-02-28T11:58:15.560Z,3.95
2023-02-28T12:01:12.791Z,4.60
2023-02-28T12:03:58.130Z,3.53
2023-02-28T12:06:52.198Z,3.75
2023-02-28T12:09:57.439Z,4.35
2023-02-28T12:12:38.879Z,3.92
2023-02-28T12:15:31.181Z,3.45
2023-02-28T12:18:21.068Z,3.83
2023-02-28T12:21:13.199Z,3.42
2023-02-28T12:23:55.429Z,3.85
2023-02-28T12:26:49.211Z,4.10
2023-02-28T12:29:30.342Z,3.17
2023-02-28T12:32:05.840Z,4.15
2023-02-28T12:34:38.148Z,3.25
2023-02-28T12:37:14.732Z,3.70
2023-02-28T12:39:50.827Z,3.47
2023-02-28T12:42:48.398Z,4.22
2023-02-28T12:47:58.567Z,3.50
2023-02-28T12:50:26.308Z,3.58
2023-02-28T12:53:30.792Z,3.67
2023-02-28T12:56:18.976Z,3.40
2023-02-28T12:58:45.774Z,3.35
2023-02-28T13:01:15.784Z,3.55
2023-02-28T13:03:51.091Z,3.22
2023-02-28T13:06:36.543Z,3.73
2023-02-28T13:09:09.256Z,3.45
2023-02-28T13:11:41.087Z,3.28
2023-02-28T13:14:31.538Z,3.67
2023-02-28T13:17:00.625Z,3.30
2023-02-28T13:19:30.550Z,3.47
2023-02-28T13:21:58.823Z,3.40
2023-02-28T13:24:40.548Z,3.40
2023-02-28T13:27:09.488Z,3.72
2023-02-28T13:29:41.515Z,3.08
2023-02-28T13:32:11.849Z,3.45
2023-02-28T13:34:42.319Z,3.28
2023-02-28T13:37:30.498Z,3.40
2023-02-28T13:40:02.216Z,3.53
2023-02-28T13:42:31.875Z,3.55
2023-02-28T13:45:04.768Z,3.20
2023-02-28T13:47:45.847Z,3.75
2023-02-28T13:50:16.768Z,3.22
2023-02-28T13:53:15.743Z,3.33
2023-02-28T13:56:06.271Z,3.80
2023-02-28T13:58:42.077Z,2.88
2023-02-28T14:01:30.804Z,3.67
2023-02-28T14:04:38.212Z,3.33
2023-02-28T14:07:05.855Z,3.22
2023-02-28T14:09:35.900Z,3.30
2023-02-28T14:12:40.486Z,3.10
2023-02-28T14:15:25.950Z,3.17
2023-02-28T14:17:57.414Z,3.33
2023-02-28T14:20:28.699Z,3.60
2023-02-28T14:23:09.191Z,3.35
2023-02-28T14:26:12.844Z,2.85
2023-02-28T14:29:11.078Z,3.17
2023-02-28T14:31:47.252Z,3.65
2023-02-28T14:34:19.885Z,3.58
2023-02-28T14:36:47.887Z,3.17
2023-02-28T14:39:22.941Z,2.75
2023-02-28T14:41:49.902Z,3.05
2023-02-28T14:44:22.145Z,3.17
2023-02-28T14:46:55.353Z,2.92
2023-02-28T14:49:31.205Z,3.22
2023-02-28T14:52:25.238Z,2.97
2023-02-28T14:55:01.441Z,2.83
2023-02-28T14:57:29.900Z,2.75
2023-02-28T15:00:11.979Z,3.42
2023-02-28T15:02:40.850Z,3.38
2023-02-28T15:05:13.538Z,3.42
2023-02-28T15:07:40.908Z,4.03
2023-02-28T15:10:25.381Z,3.35
2023-02-28T15:12:59.006Z,3.90
2023-02-28T15:15:40.526Z,3.08
2023-02-28T15:18:39.515Z,3.00
2023-02-28T15:21:17.868Z,3.03
2023-02-28T15:23:52.293Z,3.22
2023-02-28T15:26:23.574Z,3.13
2023-02-28T15:28:59.666Z,3.05
2023-02-28T15:34:23.247Z,2.97
2023-02-28T15:36:51.578Z,2.97
2023-02-28T15:39:29.337Z,2.80
2023-02-28T15:42:21.039Z,3.05
2023-02-28T15:44:48.445Z,2.75
2023-02-28T15:47:29.122Z,3.17
2023-02-28T15:50:08.413Z,3.53
2023-02-28T15:52:41.939Z,3.08
2023-02-28T15:55:23.932Z,2.72
2023-02-28T15:57:58.440Z,2.92
2023-02-28T16:00:26.817Z,2.83
2023-02-28T16:02:53.736Z,3.25
2023-02-28T16:05:31.239Z,3.70
2023-02-28T16:08:10.050Z,2.92
2023-02-28T16:10:36.943Z,2.85
2023-02-28T16:13:04.205Z,2.80
2023-02-28T16:15:36.260Z,2.78
2023-02-28T16:18:03.131Z,3.05
2023-02-28T16:20:31.713Z,3.10
2023-02-28T16:23:02.356Z,3.30
2023-02-28T16:25:36.461Z,3.22
2023-02-28T16:28:03.998Z,3.15
2023-02-28T16:30:34.049Z,3.05
2023-02-28T16:33:00.906Z,3.13
2023-02-28T16:35:27.731Z,2.97
2023-02-28T16:37:55.010Z,3.55
2023-02-28T16:40:24.560Z,3.13
2023-02-28T16:42:54.045Z,3.15
2023-02-28T16:45:28.982Z,3.08
2023-02-28T16:47:56.778Z,2.95
2023-02-28T16:50:29.318Z,3.55
2023-02-28T16:52:56.955Z,2.63
2023-02-28T16:55:25.487Z,2.83
2023-02-28T16:58:00.821Z,3.25
2023-02-28T17:00:29.588Z,2.63
2023-02-28T17:02:57.599Z,3.38
2023-02-28T17:05:24.918Z,3.33
2023-02-28T17:07:51.808Z,3.30
2023-02-28T17:10:22.081Z,3.53
2023-02-28T17:12:49.073Z,3.05
2023-02-28T17:15:17.831Z,3.80
2023-02-28T17:17:47.095Z,3.50
2023-02-28T17:20:19.476Z,3.80
2023-02-28T17:22:46.264Z,3.83
2023-02-28T17:25:13.111Z,3.60
2023-02-28T17:27:39.998Z,4.00
2023-02-28T17:30:22.218Z,4.25
2023-02-28T17:32:49.204Z,3.97
2023-02-28T17:35:19.335Z,3.88
2023-02-28T17:37:46.531Z,4.07
2023-02-28T17:40:19.294Z,3.70
2023-02-28T17:42:47.175Z,3.20
2023-02-28T17:45:16.046Z,3.88
2023-02-28T17:47:46.519Z,3.88
2023-02-28T17:50:19.798Z,4.85
2023-02-28T17:52:47.314Z,3.70
2023-02-28T17:55:14.702Z,4.10
2023-02-28T17:57:42.897Z,4.55
2023-02-28T18:00:13.524Z,4.20
2023-02-28T18:02:42.748Z,4.28
2023-02-28T18:05:10.481Z,3.75
2023-02-28T18:07:40.963Z,3.95
2023-02-28T18:10:20.426Z,3.75
2023-02-28T18:12:52.430Z,3.90
2023-02-28T18:15:21.608Z,3.45
2023-02-28T18:17:49.816Z,3.65
2023-02-28T18:20:17.749Z,3.88
2023-02-28T18:22:45.132Z,3.72
2023-02-28T18:25:17.699Z,3.78
2023-02-28T18:27:53.929Z,3.78
2023-02-28T18:30:21.882Z,3.97
2023-02-28T18:32:48.787Z,4.28
2023-02-28T18:35:15.684Z,5.00
2023-02-28T18:37:42.494Z,14.55
2023-02-28T18:40:10.292Z,21.08
2023-02-28T18:42:39.188Z,17.15
2023-02-28T18:45:06.720Z,13.70
2023-02-28T18:47:35.112Z,9.60
2023-02-28T18:50:02.400Z,7.32
2023-02-28T18:52:29.671Z,6.53
2023-02-28T18:54:56.458Z,5.90
2023-02-28T18:57:23.281Z,5.80
2023-02-28T18:59:50.031Z,4.57
2023-02-28T19:02:16.905Z,5.20
2023-02-28T19:04:43.689Z,5.80
2023-02-28T19:07:10.515Z,7.60
2023-02-28T19:09:37.808Z,9.48
2023-02-28T19:12:05.025Z,9.82
2023-02-28T19:14:32.228Z,7.32
2023-02-28T19:16:59.453Z,6.28
2023-02-28T19:19:26.690Z,5.53
2023-02-28T19:21:55.531Z,5.10
2023-02-28T19:24:23.000Z,4.90
2023-02-28T19:26:49.774Z,4.72
2023-02-28T19:29:17.081Z,4.60
2023-02-28T19:31:43.867Z,4.72
2023-02-28T19:34:11.166Z,6.05
2023-02-28T19:36:38.367Z,5.47
2023-02-28T19:39:05.994Z,4.90
2023-02-28T19:41:32.849Z,4.50
2023-02-28T19:44:00.093Z,5.53
2023-02-28T19:46:27.098Z,5.35
2023-02-28T19:48:54.409Z,4.97
2023-02-28T19:51:22.456Z,4.82
2023-02-28T19:53:49.482Z,5.15
2023-02-28T19:56:16.416Z,5.07
2023-02-28T19:58:43.275Z,5.47
2023-02-28T20:01:15.960Z,5.20
2023-02-28T20:03:43.419Z,5.95
2023-02-28T20:06:13.784Z,5.53
2023-02-28T20:08:40.861Z,5.38
2023-02-28T20:11:10.453Z,4.82
2023-02-28T20:13:37.522Z,6.10
2023-02-28T20:16:08.984Z,5.53
2023-02-28T20:18:37.264Z,5.35
2023-02-28T20:21:04.175Z,4.45
2023-02-28T20:23:31.105Z,5.45
2023-02-28T20:26:01.358Z,5.10
2023-02-28T20:28:28.295Z,4.78
2023-02-28T20:30:55.735Z,5.03
2023-02-28T20:33:22.838Z,4.97
2023-02-28T20:35:52.679Z,4.85
2023-02-28T20:38:20.248Z,5.38
2023-02-28T20:40:47.122Z,4.45
2023-02-28T20:43:13.921Z,5.10
2023-02-28T20:45:40.814Z,5.60
2023-02-28T20:48:07.676Z,5.10
2023-02-28T20:50:34.467Z,4.80
2023-02-28T20:53:01.223Z,5.40
2023-02-28T20:55:28.063Z,5.55
2023-02-28T20:57:55.057Z,6.05
2023-02-28T21:00:22.642Z,4.90
2023-02-28T21:02:49.463Z,5.32
2023-02-28T21:05:17.086Z,5.78
2023-02-28T21:07:43.853Z,5.13
2023-02-28T21:10:11.460Z,5.63
2023-02-28T21:12:38.248Z,6.13
2023-02-28T21:15:05.524Z,6.55
2023-02-28T21:17:32.403Z,6.30
2023-02-28T21:19:59.223Z,5.85
2023-02-28T21:22:26.055Z,5.32
2023-02-28T21:24:52.882Z,5.90
2023-02-28T21:27:19.684Z,5.93
2023-02-28T21:29:46.520Z,6.15
2023-02-28T21:32:14.618Z,5.50
2023-02-28T21:34:41.916Z,5.93
2023-02-28T21:37:09.076Z,6.32
2023-02-28T21:39:35.953Z,5.82
2023-02-28T21:42:03.913Z,6.32
2023-02-28T21:44:34.336Z,5.57
2023-02-28T21:47:02.064Z,5.38
2023-02-28T21:49:29.401Z,6.22
2023-02-28T21:51:56.468Z,6.05
2023-02-28T21:54:23.380Z,5.97
2023-02-28T21:56:53.425Z,5.35
2023-02-28T21:59:20.721Z,5.97
2023-02-28T22:01:50.992Z,6.07
2023-02-28T22:04:21.453Z,6.30
2023-02-28T22:06:57.209Z,5.82
2023-02-28T22:09:24.310Z,6.00
2023-02-28T22:11:51.293Z,6.97
2023-02-28T22:14:18.829Z,6.85
2023-02-28T22:16:52.062Z,6.07
2023-02-28T22:19:21.410Z,6.63
2023-02-28T22:21:49.005Z,7.25
2023-02-28T22:24:17.968Z,7.78
2023-02-28T22:26:45.035Z,8.15
2023-02-28T22:29:11.997Z,8.68
2023-02-28T22:31:38.885Z,9.05
2023-02-28T22:34:08.772Z,9.77
2023-02-28T22:36:36.647Z,8.63
2023-02-28T22:39:05.140Z,7.07
2023-02-28T22:41:32.302Z,6.70
2023-02-28T22:44:01.766Z,6.82
2023-02-28T22:46:31.139Z,6.40
2023-02-28T22:48:59.658Z,6.78
2023-02-28T22:51:28.104Z,8.45
2023-02-28T22:53:56.203Z,7.50
2023-02-28T22:56:25.551Z,6.68
2023-02-28T22:58:54.396Z,7.15
2023-02-28T23:01:23.017Z,6.13
2023-02-28T23:03:50.003Z,7.57
2023-02-28T23:06:25.613Z,8.05
2023-02-28T23:08:55.689Z,7.55
2023-02-28T23:11:26.017Z,6.90
2023-02-28T23:13:59.507Z,7.00
2023-02-28T23:16:38.838Z,6.95
2023-02-28T23:19:09.746Z,8.07
2023-02-28T23:21:37.226Z,7.20
2023-02-28T23:24:06.007Z,6.43
2023-02-28T23:26:33.252Z,7.55
2023-02-28T23:29:01.178Z,6.95
2023-02-28T23:31:28.043Z,6.03
2023-02-28T23:33:56.533Z,6.63
2023-02-28T23:36:23.725Z,7.43
2023-02-28T23:38:52.494Z,8.23
2023-02-28T23:41:21.455Z,6.60
2023-02-28T23:43:48.686Z,6.22
2023-02-28T23:46:16.042Z,7.18
2023-02-28T23:48:43.638Z,6.82
2023-02-28T23:51:19.586Z,6.82
2023-02-28T23:53:51.283Z,6.57
2023-02-28T23:56:23.185Z,6.10
2023-02-28T23:58:50.852Z,6.35
